Terminal Aerodrome Forecast
Issued by NWS

Home | Current Version | Previous Version | Text Only | Print | Product List | Glossary On
Versions: 1 2 3 4 5 6 7 8 9 10 11 12 13 14 15 16 17 18 19
000
FTAK31 PAJN 301100 CCA
TAFAYA
TAF COR
PAYA 301138Z 3012/0112 22008KT 6SM -SHRA SCT025 BKN035 OVC060
     FM301400 25005KT P6SM -SHRA SCT010 BKN035 OVC060
     FM301800 VRB03KT P6SM VCSH SCT035 BKN050
     FM302100 34008KT P6SM SCT050 SCT070
     FM010300 VRB04KT P6SM SCT070
      AMD LTD TO CLD VIS AND WIND 0101/0110=

USA.gov is the U.S. government's official web portal to all federal, state and local government web resources and services.